Adak Island, Alaska
Current Conditions -  °F | °C
As of 2:16 AM on Wednesday 26 Nov 2014 (Local Time) from PADK Reporting Station
Scattered Clouds Scattered Clouds  
Wind Chill: 30°   Ceiling: Unl
Heat Index: 36°   Visibility: 10mi
Dew Point: 27°   Wind: 7mph
Humidity: 70%   Direction: 200°SSW
Pressure: 29.66"   Gusts: NA
Location:  51.88°N, 176.65°W
Report Text: PADK 261116Z AUTO 20006KT 10SM SCT036 02/M03 A2966 RMK AO1
Loading
Personal Weather Stations






























Interactive Weather Map New forecast layout! Learn more

10-Day Weather Forecast

Advertisements
Track Severe Weather on mobile